Nearby METAR Reports

 

KCMH - Columbus, Ohio, USA
Distance from station: SW 5mi, 8km
Updated: Mon, 22-Jan-2018 7:51pm EST
Overcast
Overcast
 Wind from SSE
Wind: SSE 16 mph , 26 km/h, Gust: 23 mph , 37 km/h
Temperature: 55°F , 13°C
Dew Point: 48°F , 9°C
Humidity: 77%
Barometer: 29.67 inHg , 1004.7 hPa
Clouds: Overcast
Visibility: 10 miles , 16 km
Cloud details: Overcast 4200 ft
2018/01/23 00:51 KCMH 230051Z 16014G20KT 10SM OVC042 13/09 A2967 RMK AO2 SLP046 T01330094
KOSU - Columbus/St Univ, Ohio, USA
Distance from station: W 14mi, 23km
Updated: Mon, 22-Jan-2018 7:53pm EST
Overcast
Overcast
 Wind from SSE
Wind: SSE 16 mph , 26 km/h
Temperature: 55°F , 13°C
Dew Point: 48°F , 9°C
Humidity: 77%
Barometer: 29.65 inHg , 1004.1 hPa
Clouds: Overcast
Visibility: 10 miles , 16 km
Cloud details: Overcast 4000 ft
2018/01/23 00:53 KOSU 230053Z 16014KT 10SM OVC040 13/09 A2965 RMK AO2 SLP041 T01280094
 
KLCK - Rickenbacker Ang, Ohio, USA
Distance from station: SSW 17mi, 27km
Updated: Mon, 22-Jan-2018 8:15pm EST
Overcast
Overcast
 Wind from S
Wind: S 14 mph , 22 km/h, Gust: 17 mph , 28 km/h
Temperature: 54°F , 12°C
Dew Point: 50°F , 10°C
Humidity: 88%
Barometer: 29.65 inHg , 1004.1 hPa
Clouds: Overcast
Visibility: 10 miles , 16 km
Cloud details: Mostly cloudy 4100 ft
Overcast 4700 ft
2018/01/23 01:15 KLCK 230115Z AUTO 17012G15KT 10SM BKN041 OVC047 12/10 A2965 RMK AO2 LTG DSNT W T01240097
KVTA - Newark, Ohio, USA
Distance from station: E 19mi, 30km
Updated: Mon, 22-Jan-2018 7:54pm EST
Overcast
Overcast
 Wind from S
Wind: S 9 mph , 15 km/h
Temperature: 55°F , 13°C
Dew Point: 48°F , 9°C
Humidity: 77%
Barometer: 29.69 inHg , 1005.4 hPa
Clouds: Overcast
Visibility: 10 miles , 16 km
Cloud details: Overcast 4300 ft
2018/01/23 00:54 KVTA 230054Z AUTO 17008KT 10SM OVC043 13/09 A2969 RMK AO2 SLP054 T01280089
 
KTZR - Columbus/Bolton, Ohio, USA
Distance from station: WSW 20mi, 31km
Updated: Mon, 22-Jan-2018 8:35pm EST
Overcast
Overcast
 Wind from SSE
Wind: SSE 13 mph , 20 km/h
Temperature: 54°F , 12°C
Dew Point: 48°F , 9°C
Humidity: 82%
Barometer: 29.65 inHg , 1004.1 hPa
Clouds: Overcast
Visibility: 10 miles , 16 km
Cloud details: Overcast 3700 ft
2018/01/23 01:35 KTZR 230135Z AUTO 16011KT 10SM OVC037 12/09 A2965 RMK AO2 LTG DSNT W T01170092
KLHQ - Lancaster, Ohio, USA
Distance from station: SSE 22mi, 36km
Updated: Mon, 22-Jan-2018 7:53pm EST
Mostly cloudy
Mostly cloudy
 Wind from SSE
Wind: SSE 15 mph , 24 km/h, Gust: 23 mph , 37 km/h
Temperature: 55°F , 13°C
Dew Point: 48°F , 9°C
Humidity: 77%
Barometer: 29.68 inHg , 1005.1 hPa
Clouds: Mostly cloudy
Visibility: 10 miles , 16 km
Cloud details: Mostly cloudy 4900 ft
2018/01/23 00:53 KLHQ 230053Z AUTO 16013G20KT 10SM BKN049 13/09 A2968 RMK AO2 PK WND 17026/0041 SLP052 T01330089
 
KDLZ - Delaware, Ohio, USA
Distance from station: NW 23mi, 36km
Updated: Mon, 22-Jan-2018 8:36pm EST
Overcast
Overcast
 Wind from SSE
Wind: SSE 18 mph , 30 km/h, Gust: 23 mph , 37 km/h
Temperature: 54°F , 12°C
Dew Point: 46°F , 8°C
Humidity: 77%
Barometer: 29.63 inHg , 1003.4 hPa
Clouds: Overcast
Visibility: 10 miles , 16 km
Cloud details: Mostly cloudy 3700 ft
Overcast 4400 ft
2018/01/23 01:36 KDLZ 230136Z AUTO 16016G20KT 10SM BKN037 OVC044 12/08 A2963 RMK AO2 LTG DSNT W
K4I3 - Mt Vernon/Knox, Ohio, USA
Distance from station: NE 25mi, 40km
Updated: Mon, 22-Jan-2018 8:35pm EST
Overcast
Overcast
 Wind from SSE
Wind: SSE 14 mph , 22 km/h, Gust: 22 mph , 35 km/h
Temperature: 54°F , 12°C
Dew Point: 50°F , 10°C
Humidity: 88%
Barometer: 29.68 inHg , 1005.1 hPa
Clouds: Overcast
Visibility: 10 miles , 16 km
Cloud details: Overcast 4200 ft
2018/01/23 01:35 K4I3 230135Z AUTO 16012G19KT 10SM OVC042 12/10 A2968 RMK AO2 LTG DSNT SW AND W
 
KMRT - Marysville, Ohio, USA
Distance from station: WNW 30mi, 49km
Updated: Mon, 22-Jan-2018 8:35pm EST
Overcast
Overcast
 Wind from S
Wind: S 10 mph , 17 km/h, Gust: 17 mph , 28 km/h
Temperature: 52°F , 11°C
Dew Point: 46°F , 8°C
Humidity: 82%
Barometer: 29.62 inHg , 1003 hPa
Clouds: Overcast
Visibility: 10 miles , 16 km
Cloud details: Overcast 3100 ft
2018/01/23 01:35 KMRT 230135Z AUTO 18009G15KT 10SM OVC031 11/08 A2962 RMK AO2 T01090083
KMNN - Marion, Ohio, USA
Distance from station: NNW 41mi, 67km
Updated: Mon, 22-Jan-2018 7:53pm EST
Overcast
Overcast
 Wind from S
Wind: S 16 mph , 26 km/h, Gust: 25 mph , 41 km/h
Temperature: 54°F , 12°C
Dew Point: 46°F , 8°C
Humidity: 77%
Barometer: 29.65 inHg , 1004.1 hPa
Clouds: Overcast
Visibility: 10 miles , 16 km
Cloud details: Overcast 3500 ft
2018/01/23 00:53 KMNN 230053Z AUTO 18014G22KT 10SM OVC035 12/08 A2965 RMK AO2 SLP044 T01170083
 
KZZV - Zanesville, Ohio, USA
Distance from station: E 49mi, 79km
Updated: Mon, 22-Jan-2018 7:53pm EST
Overcast
Overcast
 Wind from SSE
Wind: SSE 12 mph , 19 km/h
Temperature: 54°F , 12°C
Dew Point: 48°F , 9°C
Humidity: 82%
Barometer: 29.72 inHg , 1006.4 hPa
Clouds: Overcast
Visibility: 10 miles , 16 km
Cloud details: Few Clouds 4900 ft
Overcast 6500 ft
2018/01/23 00:53 KZZV 230053Z AUTO 15010KT 10SM FEW049 OVC065 12/09 A2972 RMK AO2 RAE32 SLP063 P0002 T01220089